Flugplatz Bamberg (EDQA)

Hier findest Du alle Informationen zum Flugplatz Bamberg (EDQA).

Informationen für Piloten zum Flugplatz Bamberg

Hier findest Du alle relevanten Informationen, die Du als Pilot benötigst, um Bamberg anzufliegen.

Flugplatz: Bamberg ICAO-Code: EDQA
Frequenz Turm: 120,175 Mhz GAFOR Gebiet: 56
Frequenz Ground: 120,175 Mhz Mogas: nein
Platzrunde: N 1700 ft Landegebühr: 6,50 €
Platzhöhe: - Sunrise: 03:54 Uhr UTC
Pisten: 03/21 - 1.250 m x 23,5 m, ASPH Sunset: 18:49 Uhr UTC

Mitglieder, die in Bamberg fliegen

Flugwetter am Flugplatz Bamberg

Die METAR Information stammen aus EDDN (48.17 km entfernt).

METAR Code:
2022/08/03 06:50
EDDN 030650Z AUTO 12003KT 050V170 CAVOK 22/13 Q1018

Temperatur: 25,2 °C Niederschlag: - Wind: 3,6 kt (max.: 5,1 kt in Böen)
Temperatur (min.): 24,4 °C Luftdruck: 1023 hPa Windrichtung: 46 °
Temperatur (max.): 27,0 °C Luftfeuchtigkeit: 39 % Bewölkung: 1/8

Flugschulen am Flugplatz Bamberg

Am Flugplatz Bamberg gibt es leider keine Flugschule.

Benachbarte Flugplätze und Flugschulen

Es gibt 16 weitere Flugplätze in einem Umkreis von 50 km um den Flugplatz Bamberg.

Jetzt anmelden

Passwort vergessen

Umfrage Archiv

Sendet Ihr ADS-B und/oder FLARM?

Ja
83.2 %
Nein
16.8 %
Stimmen: 197 | Diskussion
Anzeige: Roland Aircraft
Statistik Alle Mitglieder

Aktuell sind 35 Besucher online, davon 1 Mitglied und 34 Gäste.


Mitglieder online:
hennes 

Anzeige: ULPower Aero Engines Anzeige: Pocket FMS